This is the latest recevied weather packets stored in our database for station/object AA4OM-2. If no packets are shown the sender has not sent any weather packets the latest 10 day(s).
| Time | Temp. | Humidity | Pressure | Rain* | Wind** | Luminosity | Snow |
|---|---|---|---|---|---|---|---|
| 1777318124 | 27.22° C | 63% | 1011.3 hPa | 0 mm | - | 165 W/m² | - |
| 1777317821 | 26.67° C | 64% | 1011.5 hPa | 0 mm | - | 191 W/m² | - |
| 1777317518 | 27.22° C | 64% | 1011.3 hPa | 0 mm | - | 166 W/m² | - |
| 1777317215 | 27.22° C | 64% | 1011.5 hPa | 0 mm | - | 187 W/m² | - |
| 1777316910 | 27.22° C | 64% | 1011.5 hPa | 0 mm | - | 130 W/m² | - |
| 1777316607 | 27.22° C | 64% | 1011.7 hPa | 0 mm | - | 216 W/m² | - |
| 1777316304 | 27.78° C | 63% | 1011.6 hPa | 0 mm | - | 149 W/m² | - |
| 1777316001 | 28.33° C | 61% | 1011.4 hPa | 0 mm | - | 367 W/m² | - |
| 1777315701 | 28.33° C | 60% | 1011.6 hPa | 0 mm | - | 383 W/m² | - |
| 1777315397 | 27.78° C | 63% | 1011.6 hPa | 0 mm | - | 950 W/m² | - |
| 1777315095 | 27.78° C | 63% | 1011.4 hPa | 0 mm | - | 864 W/m² | - |
| 1777314796 | 27.78° C | 61% | 1011.7 hPa | 0 mm | - | 868 W/m² | - |
| 1777314493 | 27.78° C | 64% | 1011.8 hPa | 0 mm | - | 854 W/m² | - |
| 1777314190 | 27.22° C | 67% | 1011.8 hPa | 0 mm | - | 851 W/m² | - |
| 1777313888 | 26.67° C | 69% | 1012.1 hPa | 0 mm | - | 544 W/m² | - |
| 1777313584 | 26.11° C | 68% | 1012.2 hPa | 0 mm | - | 371 W/m² | - |
| 1777313282 | 26.11° C | 69% | 1012.2 hPa | 0 mm | - | 260 W/m² | - |
| 1777312978 | 26.67° C | 67% | 1012.3 hPa | 0 mm | - | 216 W/m² | - |
| 1777312675 | 27.22° C | 63% | 1012.2 hPa | 0 mm | - | 391 W/m² | - |
| 1777312371 | 27.78° C | 63% | 1012.4 hPa | 0 mm | - | 458 W/m² | - |
| 1777312069 | 27.22° C | 66% | 1012.1 hPa | 0 mm | - | 970 W/m² | - |
| 1777311766 | 27.22° C | 65% | 1012.5 hPa | 0 mm | - | 286 W/m² | - |
| 1777311463 | 27.22° C | 65% | 1012.4 hPa | 0 mm | - | 950 W/m² | - |
| 1777311160 | 27.22° C | 64% | 1012.5 hPa | 0 mm | - | 235 W/m² | - |
| 1777310858 | 26.67° C | 66% | 1012.3 hPa | 0 mm | - | 324 W/m² | - |
* Rain latest hour (hover to see other rain measurements)
** Current wind speed in m/s (hover to see current wind gust speed)